Tropical Cyclones
[Index]
Main Index Home Page Stock Weather Photos Extreme Storms Discussion Storm News and Storm Chasing Reports Tropical Cyclones / Hurricanes / Typhoons Weather Data and Links Wild Fires / Bushfires Weather Observation Techniques Weather Picture Catalogue Tornado Pictures and Reports Stock Video Footage and DVDs for sale
Season 2006-2007 Tropical Cyclone HUMBA Track Map
Season 2006-2007 Summaries (Operational Data): [AU] [SIO] [SPAC] [SH]
<<- Previous TC | 2006-2007 Season | Next TC ->>

click for intensity scale information  Lat/long Grid: Show Hide

 Date Labels: Show Hide

Operational Tropical Cyclone Data : JTWC Advisories

Name: HUMBA
Number: 0716

20 Feb 2007 21:00 UTC to 28 Feb 2007 12:00 UTC

    date/time    lat    long     hPa   cat  kts
2007-02-20 21   10.0    92.0    1000         30          
2007-02-20 23    9.6    91.3    1004         30          
2007-02-21 05    9.7    90.0    1002         30          
2007-02-21 12   10.5    88.5    1001         25          
2007-02-21 18   10.8    86.5    1000         25          
2007-02-22 00   10.9    85.5     999         25          
2007-02-22 06   11.3    84.8     998         30          
2007-02-22 12   11.8    83.9     997         30          
2007-02-22 18   12.3    82.9     997         30          
2007-02-23 00   12.8    82.5     997         30          
2007-02-23 06   12.9    81.7     995    1    35          
2007-02-23 12   13.8    81.4     987    1    45          
2007-02-23 18   14.6    80.6     983    2    50          
2007-02-24 00   15.3    79.8     983    2    50          
2007-02-24 06   15.6    79.7     980    2    55          
2007-02-24 12   16.4    79.5     975    2    60          
2007-02-24 18   17.4    79.8     975    2    60          
2007-02-25 00   18.4    79.4     966    3    65          
2007-02-25 06   19.6    79.0     960    3    75          
2007-02-25 12   20.1    78.2     960    3    75          
2007-02-25 18   20.5    77.2     966    3    70          
2007-02-26 00   21.8    77.6     974    2    60          
2007-02-26 06   22.5    77.4     980    2    50          
2007-02-26 12   23.2    77.4     980    2    50          
2007-02-26 18   24.4    78.0     985    2    50          
2007-02-27 00   25.2    78.7     985    2    50          
2007-02-27 06   26.0    78.9     990    1    45          
2007-02-27 12   27.8    79.2     990    1    45          
2007-02-27 18   29.1    79.2     985    1    45          
2007-02-28 00   29.8    78.9     975    1    45          
2007-02-28 06   29.8    78.0     980    1    45          
2007-02-28 12   29.8    78.3     980    1    45          
Winds are 10-min average.

Tropical cyclone tracks developed by Michael Bath using operational warnings and advisories and Google Maps.


[Australian Severe Weather index] [Copyright Notice] [Email Contacts] [Search This Site] [Privacy Policy]
Document: tropical_cyclone_humba.htm Updated: 28 May 2013